Time;durP1;ratioP1;P1;durP2;ratioP2;P2;SDS_P1;SDS_P2;PMS_P1;PMS_P2;Temp;Humidity;BMP_temperature;BMP_pressure;BME280_temperature;BME280_humidity;BME280_pressure;Samples;Min_cycle;Max_cycle;Signal;HPM_P1;HPM_P2
2023/07/29 00:01:37;;;;;;;6.40;4.25;;;19.50;99.90;;;;;;5062835;28;20211;-76
2023/07/29 00:04:04;;;;;;;5.78;4.13;;;19.40;99.90;;;;;;5070870;28;20258;-74
2023/07/29 00:06:31;;;;;;;6.15;4.13;;;19.30;99.90;;;;;;5070675;28;20197;-74
2023/07/29 00:08:58;;;;;;;7.35;4.10;;;19.30;99.90;;;;;;5069889;28;20509;-75
2023/07/29 00:11:25;;;;;;;6.78;4.20;;;19.20;99.90;;;;;;5069867;28;20236;-77
2023/07/29 00:13:53;;;;;;;6.57;4.13;;;19.30;99.90;;;;;;5064493;28;20270;-75
2023/07/29 00:16:22;;;;;;;5.82;3.83;;;19.20;99.90;;;;;;5070700;28;20218;-75
2023/07/29 00:18:49;;;;;;;4.38;3.53;;;19.30;99.90;;;;;;5068561;28;20205;-75
2023/07/29 00:21:16;;;;;;;5.90;3.67;;;19.20;99.90;;;;;;5070085;28;20667;-74
2023/07/29 00:23:43;;;;;;;6.60;3.40;;;19.30;99.90;;;;;;5058348;28;20208;-75
2023/07/29 00:26:10;;;;;;;5.55;3.55;;;19.20;99.90;;;;;;5042325;28;20339;-75
2023/07/29 00:28:37;;;;;;;5.38;3.28;;;19.20;99.90;;;;;;5068959;28;20212;-74
2023/07/29 00:31:04;;;;;;;5.07;3.20;;;19.20;99.90;;;;;;5057363;28;20228;-77
2023/07/29 00:33:31;;;;;;;4.07;3.35;;;19.20;99.90;;;;;;5066965;28;20235;-76
2023/07/29 00:36:01;;;;;;;3.78;2.95;;;19.20;99.90;;;;;;5069219;28;20599;-75
2023/07/29 00:38:28;;;;;;;4.18;2.90;;;19.20;99.90;;;;;;5055351;28;20836;-75
2023/07/29 00:40:57;;;;;;;5.25;3.22;;;19.00;99.90;;;;;;5062064;28;20213;-74
2023/07/29 00:43:24;;;;;;;4.13;2.72;;;19.10;99.90;;;;;;5070034;28;20261;-78
2023/07/29 00:45:52;;;;;;;5.35;3.03;;;19.10;99.90;;;;;;5070414;28;20564;-75
2023/07/29 00:48:19;;;;;;;5.15;3.05;;;19.10;99.90;;;;;;5069702;28;20556;-74
2023/07/29 00:50:46;;;;;;;3.88;2.88;;;19.00;99.90;;;;;;5068163;28;20232;-77
2023/07/29 00:53:13;;;;;;;4.53;3.05;;;19.00;99.90;;;;;;5070257;28;20570;-76
2023/07/29 00:55:40;;;;;;;4.82;2.72;;;19.00;99.90;;;;;;5058027;28;20220;-75
2023/07/29 00:58:07;;;;;;;5.03;3.08;;;19.00;99.90;;;;;;5069088;28;20224;-74
2023/07/29 01:00:34;;;;;;;4.40;2.75;;;18.90;99.90;;;;;;5060412;28;20303;-75
2023/07/29 01:03:01;;;;;;;4.80;3.28;;;18.90;99.90;;;;;;5069670;28;20284;-77
2023/07/29 01:05:54;;;;;;;3.83;2.70;;;18.80;99.90;;;;;;5058246;28;20303;-75
2023/07/29 01:08:45;;;;;;;6.20;2.75;;;18.80;99.90;;;;;;5049639;28;20192;-76
2023/07/29 01:11:27;;;;;;;3.95;2.85;;;18.80;99.90;;;;;;5061719;28;20224;-76
2023/07/29 01:14:03;;;;;;;3.88;2.78;;;18.70;99.90;;;;;;5050387;28;20287;-74
2023/07/29 01:16:40;;;;;;;3.33;2.72;;;18.70;99.90;;;;;;5062946;28;20601;-75
2023/07/29 01:19:34;;;;;;;4.78;3.00;;;18.70;99.90;;;;;;5069156;28;20197;-74
2023/07/29 01:22:02;;;;;;;5.13;3.35;;;18.70;99.90;;;;;;5059148;28;20201;-75
2023/07/29 01:24:29;;;;;;;3.83;3.03;;;18.60;99.90;;;;;;5068591;28;20275;-74
2023/07/29 01:26:56;;;;;;;4.88;3.30;;;18.50;99.90;;;;;;5069617;28;20224;-75
2023/07/29 01:29:22;;;;;;;4.05;3.03;;;18.70;99.90;;;;;;5069058;28;20208;-75
2023/07/29 01:31:54;;;;;;;4.70;3.85;;;18.60;99.90;;;;;;5067743;28;20290;-75
2023/07/29 01:34:29;;;;;;;4.70;3.53;;;18.70;99.90;;;;;;5063841;28;20205;-76
2023/07/29 01:36:59;;;;;;;4.13;3.05;;;18.70;99.90;;;;;;5068205;28;20211;-75
2023/07/29 01:39:34;;;;;;;4.43;3.40;;;18.70;99.90;;;;;;5052301;28;20197;-76
2023/07/29 01:42:01;;;;;;;7.93;3.55;;;18.80;99.90;;;;;;5062588;28;20278;-75
2023/07/29 01:44:28;;;;;;;5.15;3.10;;;18.80;99.90;;;;;;5068786;28;20220;-75
2023/07/29 01:46:56;;;;;;;5.88;3.35;;;18.80;99.90;;;;;;5068510;28;20266;-78
2023/07/29 01:49:23;;;;;;;3.90;2.53;;;18.80;99.90;;;;;;5065193;28;20240;-77
2023/07/29 01:51:50;;;;;;;4.22;2.95;;;18.80;99.90;;;;;;5068794;28;20229;-77
2023/07/29 01:54:16;;;;;;;6.28;3.60;;;18.80;99.90;;;;;;5068715;28;20209;-76
2023/07/29 01:56:43;;;;;;;3.95;2.38;;;18.70;99.90;;;;;;5067732;28;20220;-76
2023/07/29 01:59:10;;;;;;;5.43;3.53;;;18.70;99.90;;;;;;5067180;28;20293;-75
2023/07/29 02:01:37;;;;;;;6.53;3.28;;;18.50;99.90;;;;;;5068381;28;20677;-75
2023/07/29 02:04:04;;;;;;;4.63;3.10;;;18.60;99.90;;;;;;5068235;28;20295;-76
2023/07/29 02:06:31;;;;;;;3.67;2.67;;;18.50;99.90;;;;;;5068946;28;20345;-75
2023/07/29 02:09:00;;;;;;;5.57;3.13;;;18.50;99.90;;;;;;5068784;28;20249;-76
2023/07/29 02:11:27;;;;;;;4.97;2.88;;;18.50;99.90;;;;;;5064343;28;20297;-75
2023/07/29 02:13:55;;;;;;;4.82;2.97;;;18.50;99.90;;;;;;5067605;28;20240;-76
2023/07/29 02:16:22;;;;;;;4.53;2.72;;;18.60;99.90;;;;;;5064531;28;20197;-75
2023/07/29 02:18:50;;;;;;;7.18;3.15;;;18.60;99.90;;;;;;5059304;28;20205;-76
2023/07/29 02:21:20;;;;;;;4.10;2.80;;;18.60;99.90;;;;;;5063514;28;20193;-76
2023/07/29 02:23:46;;;;;;;5.28;3.38;;;18.60;99.90;;;;;;5067528;28;20361;-74
2023/07/29 02:26:13;;;;;;;5.40;2.85;;;18.60;99.90;;;;;;5062737;28;20201;-75
2023/07/29 02:28:40;;;;;;;4.20;2.67;;;18.70;99.90;;;;;;5063810;28;20207;-74
2023/07/29 02:31:18;;;;;;;4.30;2.75;;;18.70;99.90;;;;;;5068160;28;20228;-74
2023/07/29 02:33:45;;;;;;;3.97;2.72;;;18.70;99.90;;;;;;5067360;28;20238;-74
2023/07/29 02:36:13;;;;;;;5.47;3.00;;;18.60;99.90;;;;;;5054859;28;20307;-75
2023/07/29 02:38:40;;;;;;;4.22;2.80;;;18.70;99.90;;;;;;5055786;28;20203;-75
2023/07/29 02:41:09;;;;;;;5.10;2.83;;;18.70;99.90;;;;;;5061757;28;20250;-75
2023/07/29 02:43:36;;;;;;;4.00;2.85;;;18.70;99.90;;;;;;5067176;28;20196;-75
2023/07/29 02:46:03;;;;;;;4.63;2.92;;;18.70;99.90;;;;;;5068277;28;20200;-75
2023/07/29 02:48:30;;;;;;;4.45;2.70;;;18.70;99.90;;;;;;5068049;28;20254;-75
2023/07/29 02:50:57;;;;;;;4.35;2.80;;;18.80;99.90;;;;;;5049765;28;20220;-75
2023/07/29 02:53:24;;;;;;;4.78;2.53;;;18.70;99.90;;;;;;5067501;28;20253;-76
2023/07/29 02:55:51;;;;;;;4.28;2.65;;;18.80;99.90;;;;;;5038633;28;20256;-75
2023/07/29 02:58:18;;;;;;;5.43;2.75;;;18.80;99.90;;;;;;5059675;28;20224;-75
2023/07/29 03:00:44;;;;;;;2.80;2.17;;;18.80;99.90;;;;;;5066922;28;20200;-75
2023/07/29 03:03:11;;;;;;;4.05;2.45;;;18.80;99.90;;;;;;5065540;28;20200;-76
2023/07/29 03:05:38;;;;;;;4.22;2.47;;;18.70;99.90;;;;;;5064971;28;20254;-75
2023/07/29 03:08:05;;;;;;;3.72;2.70;;;18.70;99.90;;;;;;5067486;28;20563;-77
2023/07/29 03:10:36;;;;;;;3.25;2.45;;;18.60;99.90;;;;;;5067818;28;20231;-75
2023/07/29 03:13:03;;;;;;;3.15;2.40;;;18.60;99.90;;;;;;5067265;28;20217;-76
2023/07/29 03:15:30;;;;;;;3.72;2.60;;;18.60;99.90;;;;;;5046430;28;20197;-76
2023/07/29 03:17:57;;;;;;;3.63;2.50;;;18.60;99.90;;;;;;5067078;28;20212;-76
2023/07/29 03:20:23;;;;;;;4.10;2.75;;;18.60;99.90;;;;;;5066978;28;20583;-75
2023/07/29 03:22:50;;;;;;;4.35;2.72;;;18.50;99.90;;;;;;5066554;28;20209;-75
2023/07/29 03:25:17;;;;;;;2.95;2.30;;;18.50;99.90;;;;;;5069859;28;20200;-75
2023/07/29 03:27:44;;;;;;;4.32;2.55;;;18.60;99.90;;;;;;5069466;28;20229;-75
2023/07/29 03:30:11;;;;;;;3.78;2.70;;;18.50;99.90;;;;;;5067077;28;20196;-75
2023/07/29 03:32:43;;;;;;;5.53;3.30;;;18.50;99.90;;;;;;5064834;28;20232;-75
2023/07/29 03:35:09;;;;;;;6.00;2.58;;;18.50;99.90;;;;;;5071009;28;20196;-76
2023/07/29 03:37:36;;;;;;;4.93;3.35;;;18.50;99.90;;;;;;5062732;28;20207;-76
2023/07/29 03:40:04;;;;;;;5.57;3.35;;;18.50;99.90;;;;;;5051396;28;20209;-76
2023/07/29 03:42:31;;;;;;;4.63;3.20;;;18.50;99.90;;;;;;5068721;28;20205;-78
2023/07/29 03:44:58;;;;;;;5.28;3.35;;;18.40;99.90;;;;;;5058420;28;20209;-75
2023/07/29 03:47:24;;;;;;;5.63;3.70;;;18.40;99.90;;;;;;5066446;28;20257;-77
2023/07/29 03:49:51;;;;;;;7.00;4.20;;;18.40;99.90;;;;;;5040799;28;20303;-77
2023/07/29 03:52:18;;;;;;;8.10;4.10;;;18.40;99.90;;;;;;5070793;28;20240;-78
2023/07/29 03:54:45;;;;;;;6.60;4.28;;;18.40;99.90;;;;;;5067929;28;20204;-75
2023/07/29 03:57:12;;;;;;;7.20;4.07;;;18.20;99.90;;;;;;5069096;28;20220;-76
2023/07/29 03:59:39;;;;;;;7.00;4.13;;;18.30;99.90;;;;;;5070787;28;20699;-76
2023/07/29 04:02:06;;;;;;;9.73;4.35;;;18.30;99.90;;;;;;5070480;28;20702;-74
2023/07/29 04:04:32;;;;;;;5.60;3.67;;;18.30;99.90;;;;;;5059195;28;20254;-75
2023/07/29 04:07:00;;;;;;;5.22;3.78;;;18.30;99.90;;;;;;5070014;28;20207;-77
2023/07/29 04:09:27;;;;;;;6.70;4.32;;;18.30;99.90;;;;;;5064401;28;20231;-77
2023/07/29 04:11:54;;;;;;;9.07;4.68;;;18.40;99.90;;;;;;5043678;28;20229;-77
2023/07/29 04:14:20;;;;;;;8.10;4.40;;;18.30;99.90;;;;;;5070361;28;20208;-75
2023/07/29 04:16:49;;;;;;;7.88;4.20;;;18.30;99.90;;;;;;5069360;28;20239;-77
2023/07/29 04:19:16;;;;;;;7.03;4.00;;;18.30;99.90;;;;;;5069671;28;20215;-76
2023/07/29 04:21:42;;;;;;;7.50;4.20;;;18.30;99.90;;;;;;5046491;28;21412;-75
2023/07/29 04:24:09;;;;;;;7.35;4.18;;;18.30;99.90;;;;;;5069991;28;20212;-75
2023/07/29 04:26:36;;;;;;;7.53;4.28;;;18.30;99.90;;;;;;5060795;28;20228;-75
2023/07/29 04:29:03;;;;;;;9.07;4.63;;;18.30;99.90;;;;;;5070141;28;20196;-76
2023/07/29 04:31:30;;;;;;;7.22;4.30;;;18.20;99.90;;;;;;5069372;28;20381;-77
2023/07/29 04:33:57;;;;;;;8.27;4.88;;;18.20;99.90;;;;;;5064100;28;20244;-77
2023/07/29 04:36:24;;;;;;;7.63;4.05;;;18.30;99.90;;;;;;5057875;28;20205;-75
2023/07/29 04:38:50;;;;;;;6.05;4.35;;;18.20;99.90;;;;;;5070400;28;20219;-75
2023/07/29 04:41:17;;;;;;;7.38;4.40;;;18.30;99.90;;;;;;5065506;28;20209;-74
2023/07/29 04:43:44;;;;;;;8.23;3.70;;;18.30;99.90;;;;;;5070097;28;20345;-76
2023/07/29 04:46:11;;;;;;;8.27;4.68;;;18.30;99.90;;;;;;5059856;28;20213;-75
2023/07/29 04:48:38;;;;;;;7.63;4.28;;;18.30;99.90;;;;;;5034494;28;20283;-74
2023/07/29 04:51:04;;;;;;;6.22;4.10;;;18.30;99.90;;;;;;5068110;28;20270;-75
2023/07/29 04:53:31;;;;;;;7.00;4.10;;;18.30;99.90;;;;;;5065618;28;20255;-77
2023/07/29 04:55:58;;;;;;;5.60;3.75;;;18.30;99.90;;;;;;5060241;28;20212;-75
2023/07/29 04:58:26;;;;;;;6.05;3.83;;;18.30;99.90;;;;;;5064090;28;20217;-78
2023/07/29 05:00:54;;;;;;;5.68;4.07;;;18.30;99.90;;;;;;5069454;28;20246;-75
2023/07/29 05:03:21;;;;;;;7.18;4.22;;;18.20;99.90;;;;;;5069558;28;20625;-76
2023/07/29 05:05:48;;;;;;;7.68;4.57;;;18.20;99.90;;;;;;5067838;28;20494;-75
2023/07/29 05:08:15;;;;;;;6.65;3.65;;;18.20;99.90;;;;;;5068040;28;20208;-74
2023/07/29 05:10:42;;;;;;;4.63;3.42;;;18.20;99.90;;;;;;5046466;28;20716;-75
2023/07/29 05:13:09;;;;;;;6.45;3.58;;;18.30;99.90;;;;;;5059383;28;20319;-76
2023/07/29 05:15:35;;;;;;;5.78;3.45;;;18.30;99.90;;;;;;5050436;28;20238;-74
2023/07/29 05:18:02;;;;;;;4.50;3.22;;;18.40;99.90;;;;;;5063386;28;20207;-77
2023/07/29 05:20:29;;;;;;;4.30;2.90;;;18.30;99.90;;;;;;5065535;28;20296;-74
2023/07/29 05:22:56;;;;;;;5.85;3.03;;;18.40;99.90;;;;;;5063801;28;20286;-75
2023/07/29 05:25:23;;;;;;;3.88;2.95;;;18.40;99.90;;;;;;5058053;28;20207;-76
2023/07/29 05:27:49;;;;;;;3.47;2.35;;;18.40;99.90;;;;;;5067990;28;20216;-76
2023/07/29 05:30:17;;;;;;;5.30;3.03;;;18.50;99.90;;;;;;5061507;28;20193;-74
2023/07/29 05:32:44;;;;;;;4.90;2.85;;;18.50;99.90;;;;;;5066232;28;20232;-76
2023/07/29 05:35:11;;;;;;;4.85;3.15;;;18.50;99.90;;;;;;5061515;28;20201;-75
2023/07/29 05:37:40;;;;;;;4.60;3.10;;;18.60;99.90;;;;;;5067633;28;20209;-77
2023/07/29 05:40:08;;;;;;;4.05;2.60;;;18.70;99.90;;;;;;5065785;28;20661;-75
2023/07/29 05:42:35;;;;;;;4.28;2.92;;;18.70;99.90;;;;;;5068408;28;20216;-75
2023/07/29 05:45:02;;;;;;;5.05;2.85;;;18.70;99.90;;;;;;5060806;28;20594;-75
2023/07/29 05:47:29;;;;;;;4.10;2.78;;;18.70;99.90;;;;;;5062791;28;20259;-74
2023/07/29 05:49:56;;;;;;;5.18;2.97;;;18.80;99.90;;;;;;5064740;28;20222;-75
2023/07/29 05:52:23;;;;;;;6.05;2.45;;;18.80;99.90;;;;;;5045339;28;20224;-74
2023/07/29 05:54:50;;;;;;;3.92;2.42;;;18.80;99.90;;;;;;5067663;28;20225;-75
2023/07/29 05:57:16;;;;;;;3.42;2.63;;;18.90;99.90;;;;;;5068709;28;20280;-76
2023/07/29 05:59:43;;;;;;;5.28;2.88;;;18.90;99.90;;;;;;5050349;28;20209;-75
2023/07/29 06:02:10;;;;;;;3.97;3.05;;;18.90;99.90;;;;;;5068615;28;20250;-73
2023/07/29 06:04:37;;;;;;;6.05;3.25;;;18.90;99.90;;;;;;5062488;28;20197;-75
2023/07/29 06:07:04;;;;;;;6.25;3.08;;;18.90;99.90;;;;;;5064413;28;20215;-74
2023/07/29 06:09:31;;;;;;;5.38;2.65;;;18.90;99.90;;;;;;5068664;28;20197;-74
2023/07/29 06:11:58;;;;;;;6.45;3.17;;;18.80;99.90;;;;;;5068239;28;20228;-75
2023/07/29 06:14:25;;;;;;;5.47;3.00;;;18.90;99.90;;;;;;5068560;28;20200;-75
2023/07/29 06:16:52;;;;;;;5.68;2.92;;;19.00;99.90;;;;;;5066834;28;20212;-75
2023/07/29 06:19:20;;;;;;;4.43;2.90;;;19.10;99.90;;;;;;5067386;28;20205;-75
2023/07/29 06:21:48;;;;;;;3.38;2.25;;;19.30;99.90;;;;;;5036449;28;20343;-74
2023/07/29 06:24:14;;;;;;;4.70;2.90;;;19.70;99.90;;;;;;5067343;28;20367;-75
2023/07/29 06:26:41;;;;;;;4.13;2.75;;;19.90;99.90;;;;;;5064877;28;20767;-75
2023/07/29 06:29:08;;;;;;;5.13;2.80;;;20.30;99.90;;;;;;5064288;28;20194;-76
2023/07/29 06:31:35;;;;;;;3.97;3.15;;;20.10;99.90;;;;;;5061322;28;20225;-74
2023/07/29 06:34:02;;;;;;;4.97;3.10;;;20.20;99.90;;;;;;5058638;28;20732;-75
2023/07/29 06:36:29;;;;;;;5.05;2.80;;;20.10;99.90;;;;;;5059586;28;20250;-73
2023/07/29 06:38:55;;;;;;;4.25;2.70;;;20.30;99.90;;;;;;5061695;28;20205;-76
2023/07/29 06:41:22;;;;;;;3.70;2.90;;;20.80;99.90;;;;;;5067130;28;20189;-75
2023/07/29 06:43:49;;;;;;;3.83;2.50;;;21.20;99.90;;;;;;5049915;28;20216;-75
2023/07/29 06:46:16;;;;;;;3.67;2.35;;;21.70;99.90;;;;;;5056642;28;20198;-75
2023/07/29 06:48:42;;;;;;;4.25;2.90;;;22.00;99.90;;;;;;5067480;28;20203;-73
2023/07/29 06:51:10;;;;;;;5.22;2.75;;;;;;;;;;5048090;28;20211;-74
2023/07/29 06:53:37;;;;;;;4.28;2.60;;;23.00;99.90;;;;;;5066485;28;20283;-74
2023/07/29 06:56:04;;;;;;;4.55;2.70;;;23.60;99.90;;;;;;5058604;28;20207;-74
2023/07/29 06:58:31;;;;;;;6.00;2.60;;;24.20;99.90;;;;;;5057348;28;20602;-73
2023/07/29 07:00:58;;;;;;;5.75;2.70;;;24.30;99.90;;;;;;5069841;28;20224;-74
2023/07/29 07:03:25;;;;;;;5.70;3.10;;;24.20;99.90;;;;;;5059657;28;20250;-75
2023/07/29 07:05:52;;;;;;;4.47;2.85;;;24.20;99.90;;;;;;5071151;28;20200;-74
2023/07/29 07:08:18;;;;;;;4.82;2.75;;;24.40;99.90;;;;;;5071399;28;20205;-75
2023/07/29 07:10:47;;;;;;;3.42;2.50;;;24.90;99.90;;;;;;5071182;28;20200;-76
2023/07/29 07:13:14;;;;;;;4.70;2.22;;;25.20;99.90;;;;;;5071523;28;20347;-76
2023/07/29 07:15:41;;;;;;;6.20;2.75;;;25.90;99.90;;;;;;5063845;28;20205;-77
2023/07/29 07:18:09;;;;;;;4.35;2.33;;;26.00;99.90;;;;;;5069987;28;20559;-75
2023/07/29 07:20:36;;;;;;;3.65;2.55;;;25.80;99.90;;;;;;5069971;28;20189;-76
2023/07/29 07:23:05;;;;;;;4.30;2.40;;;26.00;99.90;;;;;;5059628;28;20735;-75
2023/07/29 07:25:32;;;;;;;3.53;2.35;;;26.00;99.90;;;;;;5065018;28;20648;-77
2023/07/29 07:27:59;;;;;;;3.72;2.42;;;26.40;99.90;;;;;;5067627;28;20213;-75
2023/07/29 07:30:26;;;;;;;4.07;2.53;;;26.60;99.90;;;;;;5068565;28;20292;-75
2023/07/29 07:32:52;;;;;;;3.20;2.15;;;26.00;99.90;;;;;;5064658;28;20232;-78
2023/07/29 07:35:25;;;;;;;3.20;2.28;;;25.90;99.90;;;;;;5066440;28;20786;-77
2023/07/29 07:37:52;;;;;;;2.90;2.00;;;25.80;99.90;;;;;;5062976;28;20209;-75
2023/07/29 07:40:19;;;;;;;3.88;2.15;;;25.80;99.90;;;;;;5064975;28;20575;-76
2023/07/29 07:42:46;;;;;;;5.47;2.53;;;25.90;99.90;;;;;;5063312;28;20221;-76
2023/07/29 07:45:13;;;;;;;4.25;2.47;;;26.00;99.90;;;;;;5059642;28;20206;-78
2023/07/29 07:47:40;;;;;;;5.18;3.00;;;25.70;99.90;;;;;;5069791;28;20208;-74
2023/07/29 07:50:07;;;;;;;5.38;3.42;;;25.40;99.90;;;;;;5060250;28;20212;-75
2023/07/29 07:52:33;;;;;;;4.43;3.60;;;25.20;99.90;;;;;;5069711;28;20240;-74
2023/07/29 07:55:00;;;;;;;4.97;4.45;;;24.80;99.90;;;;;;5071234;28;20630;-74
2023/07/29 07:57:27;;;;;;;5.57;3.85;;;24.70;99.90;;;;;;5051222;28;20333;-75
2023/07/29 07:59:54;;;;;;;4.57;4.15;;;24.30;99.90;;;;;;5067744;28;20207;-74
2023/07/29 08:02:21;;;;;;;5.03;3.30;;;24.20;99.90;;;;;;5050394;28;20233;-75
2023/07/29 08:04:48;;;;;;;5.28;3.95;;;24.20;99.90;;;;;;5063498;28;20323;-74
2023/07/29 08:07:15;;;;;;;4.60;4.20;;;23.90;99.90;;;;;;5068545;28;20215;-75
2023/07/29 08:09:41;;;;;;;7.55;4.45;;;23.70;99.90;;;;;;5069126;28;20208;-74
2023/07/29 08:12:08;;;;;;;6.50;4.53;;;23.60;99.90;;;;;;5065369;28;20269;-74
2023/07/29 08:14:35;;;;;;;6.95;4.47;;;23.40;99.90;;;;;;5069263;28;20197;-75
2023/07/29 08:17:02;;;;;;;6.85;4.97;;;22.90;99.90;;;;;;5057524;28;20266;-74
2023/07/29 08:19:31;;;;;;;6.43;5.28;;;22.90;99.90;;;;;;5045972;28;20266;-74
2023/07/29 08:21:58;;;;;;;6.50;5.43;;;22.70;99.90;;;;;;5068606;28;20357;-74
2023/07/29 08:24:25;;;;;;;5.68;4.80;;;22.70;99.90;;;;;;5050633;28;20201;-74
2023/07/29 08:26:52;;;;;;;5.95;4.90;;;22.60;99.90;;;;;;5062959;28;20619;-75
2023/07/29 08:29:18;;;;;;;8.25;3.97;;;22.60;99.90;;;;;;5062845;28;20303;-74
2023/07/29 08:31:45;;;;;;;4.75;4.18;;;22.70;99.90;;;;;;5066084;28;20353;-74
2023/07/29 08:34:12;;;;;;;8.27;4.80;;;22.90;99.90;;;;;;5067783;28;20280;-74
2023/07/29 08:36:39;;;;;;;10.35;4.72;;;23.00;99.90;;;;;;5051317;28;20849;-74
2023/07/29 08:39:06;;;;;;;4.43;4.03;;;23.10;99.90;;;;;;5065760;28;20216;-73
2023/07/29 08:41:45;;;;;;;9.32;4.65;;;23.20;99.90;;;;;;5059623;28;20715;-75
2023/07/29 08:44:26;;;;;;;6.15;4.63;;;23.10;99.90;;;;;;5057733;28;20227;-74
2023/07/29 08:46:53;;;;;;;5.95;4.93;;;23.00;99.90;;;;;;5068919;28;20204;-77
2023/07/29 08:49:23;;;;;;;5.72;4.78;;;22.80;99.90;;;;;;5064677;28;20212;-75
2023/07/29 08:51:51;;;;;;;5.88;5.30;;;22.70;99.90;;;;;;5067325;28;20243;-75
2023/07/29 08:54:19;;;;;;;5.70;4.80;;;22.50;99.90;;;;;;5069906;28;20200;-74
2023/07/29 08:56:46;;;;;;;6.32;4.55;;;22.30;99.90;;;;;;5059920;28;20360;-74
2023/07/29 08:59:14;;;;;;;8.23;4.35;;;22.10;99.90;;;;;;5069277;28;20208;-73
2023/07/29 09:01:41;;;;;;;5.78;4.53;;;22.00;99.90;;;;;;5061212;28;20206;-74
2023/07/29 09:04:09;;;;;;;8.85;4.68;;;22.10;99.90;;;;;;5065633;28;20200;-74
2023/07/29 09:06:38;;;;;;;5.15;4.60;;;22.20;99.90;;;;;;5061603;28;20208;-73
2023/07/29 09:09:08;;;;;;;5.00;4.05;;;22.30;99.90;;;;;;5062670;28;20220;-74
2023/07/29 09:11:35;;;;;;;4.90;4.22;;;22.30;99.90;;;;;;5059349;28;20552;-75
2023/07/29 09:14:04;;;;;;;6.55;3.60;;;22.30;99.90;;;;;;5058601;28;20211;-73
2023/07/29 09:16:32;;;;;;;3.70;3.40;;;22.50;99.90;;;;;;5062520;28;20201;-74
2023/07/29 09:19:02;;;;;;;3.53;3.22;;;22.60;99.90;;;;;;5061502;28;20292;-76
2023/07/29 09:21:29;;;;;;;4.72;3.40;;;23.00;99.90;;;;;;5060817;28;20559;-76
2023/07/29 09:23:56;;;;;;;3.53;3.20;;;23.30;99.90;;;;;;5042991;28;20194;-74
2023/07/29 09:26:28;;;;;;;4.38;3.28;;;23.50;99.90;;;;;;5060583;28;20290;-77
2023/07/29 09:28:56;;;;;;;4.18;3.25;;;23.80;99.90;;;;;;5055134;28;20255;-76
2023/07/29 09:31:25;;;;;;;6.50;3.60;;;23.70;99.90;;;;;;5067701;28;20258;-75
2023/07/29 09:34:00;;;;;;;4.55;3.20;;;23.70;99.90;;;;;;5066232;28;20232;-75
2023/07/29 09:36:27;;;;;;;4.53;3.38;;;23.60;99.90;;;;;;5065886;28;20199;-75
2023/07/29 09:38:55;;;;;;;4.70;3.78;;;23.30;99.90;;;;;;5068445;28;20241;-76
2023/07/29 09:41:27;;;;;;;4.53;3.70;;;23.30;99.90;;;;;;5068002;28;20534;-76
2023/07/29 09:43:58;;;;;;;3.38;3.00;;;23.20;99.90;;;;;;5056411;28;20266;-74
2023/07/29 09:46:35;;;;;;;3.90;3.22;;;23.00;99.90;;;;;;5068203;28;20600;-74
2023/07/29 09:49:07;;;;;;;3.97;3.58;;;23.00;99.90;;;;;;5068651;28;20720;-76
2023/07/29 09:51:40;;;;;;;4.40;3.28;;;22.90;99.90;;;;;;5064189;28;20679;-75
2023/07/29 09:54:09;;;;;;;5.88;3.33;;;23.00;99.90;;;;;;5058400;28;20694;-75
2023/07/29 09:56:40;;;;;;;3.35;2.95;;;23.20;99.90;;;;;;5067903;28;20236;-74
2023/07/29 09:59:08;;;;;;;4.65;3.08;;;23.50;99.90;;;;;;5068504;28;20291;-77
2023/07/29 10:01:35;;;;;;;4.90;3.20;;;23.50;99.90;;;;;;5067434;28;20192;-77
2023/07/29 10:04:05;;;;;;;4.93;2.80;;;23.60;99.90;;;;;;5068018;28;20209;-75
2023/07/29 10:06:34;;;;;;;2.80;2.60;;;23.60;99.90;;;;;;5054551;28;20213;-75
2023/07/29 10:09:02;;;;;;;3.50;2.92;;;23.50;99.90;;;;;;5050810;28;20231;-75
2023/07/29 10:11:30;;;;;;;3.50;3.20;;;23.30;99.90;;;;;;5067524;28;20728;-76
2023/07/29 10:13:58;;;;;;;3.20;3.00;;;23.40;99.90;;;;;;5063797;28;20706;-77
2023/07/29 10:16:37;;;;;;;3.40;2.72;;;23.30;99.90;;;;;;5056162;28;20629;-75
2023/07/29 10:19:04;;;;;;;5.47;3.47;;;23.40;99.90;;;;;;5067470;28;20208;-74
2023/07/29 10:21:32;;;;;;;5.75;3.25;;;23.30;99.90;;;;;;5064492;28;20201;-74
2023/07/29 10:24:02;;;;;;;6.13;3.55;;;23.40;99.90;;;;;;5053648;28;20205;-74
2023/07/29 10:26:31;;;;;;;4.45;2.70;;;23.40;99.90;;;;;;5067329;28;20274;-75
2023/07/29 10:29:04;;;;;;;3.67;3.38;;;23.60;99.90;;;;;;5067032;28;20207;-74
2023/07/29 10:31:32;;;;;;;3.40;3.10;;;23.60;99.90;;;;;;5052020;28;20209;-75
2023/07/29 10:34:00;;;;;;;4.03;3.30;;;23.70;99.90;;;;;;5061003;28;20718;-74
2023/07/29 10:36:28;;;;;;;4.13;3.72;;;23.70;99.90;;;;;;5064655;28;20192;-77
2023/07/29 10:38:55;;;;;;;4.50;3.53;;;23.80;99.90;;;;;;5047797;28;20287;-75
2023/07/29 10:41:22;;;;;;;3.95;3.47;;;23.70;99.90;;;;;;5062185;28;20592;-76
2023/07/29 10:43:49;;;;;;;4.28;3.88;;;23.60;99.90;;;;;;5067814;28;20680;-76
2023/07/29 10:46:21;;;;;;;4.03;3.63;;;23.40;99.90;;;;;;5067636;28;20215;-75
2023/07/29 10:48:50;;;;;;;4.22;3.83;;;23.30;99.90;;;;;;5060173;28;20711;-75
2023/07/29 10:51:34;;;;;;;6.55;4.00;;;23.20;99.90;;;;;;5062980;28;20310;-74
2023/07/29 10:54:10;;;;;;;5.32;3.97;;;23.10;99.90;;;;;;5062208;28;20228;-76
2023/07/29 10:56:41;;;;;;;5.10;4.57;;;23.00;99.90;;;;;;5066676;28;20212;-75
2023/07/29 10:59:17;;;;;;;6.53;4.32;;;22.90;99.90;;;;;;5067433;28;20213;-76
2023/07/29 11:01:57;;;;;;;5.85;5.00;;;22.80;99.90;;;;;;5065877;28;20307;-76
2023/07/29 11:04:26;;;;;;;4.82;4.40;;;22.70;99.90;;;;;;5067562;28;20683;-75
2023/07/29 11:07:10;;;;;;;6.20;5.25;;;22.50;99.90;;;;;;5039151;28;20197;-76
2023/07/29 11:09:49;;;;;;;5.90;5.15;;;22.40;99.90;;;;;;5066155;28;20339;-75
2023/07/29 11:12:45;;;;;;;5.07;4.57;;;22.40;99.90;;;;;;5064227;28;20216;-76
2023/07/29 11:15:17;;;;;;;4.85;4.32;;;22.40;99.90;;;;;;5055612;28;20341;-75
2023/07/29 11:17:44;;;;;;;4.10;3.80;;;22.40;99.90;;;;;;5067573;28;20215;-77
2023/07/29 11:20:12;;;;;;;4.40;4.00;;;22.40;99.90;;;;;;5067191;28;20676;-75
2023/07/29 11:22:39;;;;;;;4.03;3.67;;;22.40;99.90;;;;;;5048625;28;20280;-74
2023/07/29 11:25:11;;;;;;;4.57;3.95;;;22.40;99.90;;;;;;5063491;28;20197;-75
2023/07/29 11:27:39;;;;;;;3.95;3.55;;;22.40;99.90;;;;;;5047417;28;20225;-76
2023/07/29 11:30:08;;;;;;;4.10;3.80;;;22.50;99.90;;;;;;5051769;28;20627;-77
2023/07/29 11:32:36;;;;;;;3.78;3.47;;;22.70;99.90;;;;;;5063834;28;20233;-76
2023/07/29 11:35:10;;;;;;;3.72;3.42;;;22.80;99.90;;;;;;5056139;28;20574;-74
2023/07/29 11:37:39;;;;;;;4.45;3.72;;;23.20;99.90;;;;;;5065784;28;20281;-75
2023/07/29 11:40:08;;;;;;;3.78;3.47;;;23.30;99.90;;;;;;5061170;28;20612;-76
2023/07/29 11:42:37;;;;;;;3.55;3.25;;;23.60;99.90;;;;;;5064686;28;20622;-77
2023/07/29 11:45:06;;;;;;;3.97;3.22;;;23.80;99.90;;;;;;5069039;28;20207;-80
2023/07/29 11:47:36;;;;;;;3.35;2.83;;;24.00;99.90;;;;;;5053476;28;20208;-82
2023/07/29 11:50:06;;;;;;;3.80;3.00;;;24.00;99.90;;;;;;5054096;28;20599;-79
2023/07/29 11:52:33;;;;;;;5.40;3.10;;;24.00;99.90;;;;;;5071827;28;20381;-81
2023/07/29 11:55:02;;;;;;;4.93;2.80;;;24.00;99.90;;;;;;5053156;28;20193;-82
2023/07/29 11:57:31;;;;;;;11.95;5.68;;;24.10;99.90;;;;;;5052889;28;20558;-82
2023/07/29 11:59:58;;;;;;;28.85;9.57;;;23.90;99.90;;;;;;5063119;28;20617;-81
2023/07/29 12:02:26;;;;;;;3.55;3.25;;;23.90;99.90;;;;;;5072000;28;20692;-79
2023/07/29 12:04:53;;;;;;;4.47;3.53;;;23.90;99.90;;;;;;5070416;28;20212;-80
2023/07/29 12:07:20;;;;;;;3.40;3.10;;;23.80;99.90;;;;;;5069115;28;20198;-80
2023/07/29 12:09:48;;;;;;;5.38;3.08;;;23.80;99.90;;;;;;5070669;28;20227;-79
2023/07/29 12:12:15;;;;;;;3.70;3.10;;;23.70;99.90;;;;;;5059423;28;20864;-80
2023/07/29 12:14:48;;;;;;;2.90;2.60;;;23.40;99.90;;;;;;5061540;28;20601;-81
2023/07/29 12:17:15;;;;;;;2.88;2.10;;;23.70;99.90;;;;;;5046304;28;20204;-82
2023/07/29 12:19:42;;;;;;;3.50;1.92;;;23.20;99.90;;;;;;5066937;28;20796;-80
2023/07/29 12:22:10;;;;;;;1.92;1.80;;;23.00;99.90;;;;;;5055131;28;20202;-79
2023/07/29 12:24:39;;;;;;;2.30;2.10;;;22.80;99.90;;;;;;5055826;28;20542;-79
2023/07/29 12:27:11;;;;;;;2.33;1.90;;;22.40;99.90;;;;;;5061662;28;20245;-80
2023/07/29 12:29:43;;;;;;;2.75;1.80;;;22.30;99.90;;;;;;5067264;28;20204;-79
2023/07/29 12:32:10;;;;;;;3.20;2.40;;;22.20;99.90;;;;;;5066780;28;20249;-80
2023/07/29 12:34:41;;;;;;;2.80;2.25;;;22.20;99.90;;;;;;5068269;28;20311;-80
2023/07/29 12:37:08;;;;;;;2.80;2.30;;;22.20;99.90;;;;;;5058399;28;20258;-79
2023/07/29 12:39:41;;;;;;;4.10;2.63;;;22.00;99.90;;;;;;5070285;28;20204;-80
2023/07/29 12:42:08;;;;;;;3.60;2.45;;;22.00;99.90;;;;;;5065572;28;20216;-81
2023/07/29 12:44:36;;;;;;;2.97;2.63;;;22.00;99.90;;;;;;5069540;28;20208;-80
2023/07/29 12:47:05;;;;;;;4.20;2.83;;;21.70;99.90;;;;;;5064753;28;20277;-80
2023/07/29 12:49:32;;;;;;;3.85;2.80;;;22.30;99.90;;;;;;5057749;28;20254;-78
2023/07/29 12:52:00;;;;;;;2.95;2.65;;;22.60;99.90;;;;;;5066068;28;20244;-79
2023/07/29 12:54:27;;;;;;;2.80;2.60;;;22.80;99.90;;;;;;5066050;28;20231;-79